Airfield :
LOGIN :

Register | Disclaimer

   EN    FR    IT 

 










Legend :    VFR   Marginal VFR   IFR   Intensive IFR   Very Intensive IFR
Visi :
Ceiling :
>= 8 km
>= 3000ft
5 to 8 km
1000 to 3000 ft
1500m to 5 km
500 to 1000 ft
800 to 1500m
200 to 500 ft
< 800m
< 200 ft
Symbols :   Thunderstorms  Fog  Heavy snow  Heavy precipitations  Wind > 20 kt
SIGMETs :     Misc.  Thunderstorms  Icing  Turbulence  Mountain Waves  Volcanic Ashes







- Airport Elevation : 1367 ft
- IATA code : FDH


EDNY - Friedrichshafen

CURRENT METAR :
  • 210720Z 36005KT 330V030 9999 OVC006 M01/M02 Q1012

EXPIRED METARs :
  • 210650Z 01005KT 6000 OVC006 M01/M02 Q1011
  • 210620Z 01006KT 6000 OVC006 M01/M02 Q1011
  • 210550Z COR 02007KT 9999 OVC006 M01/M02 Q1011
  • 210520Z 36006KT 8000 SCT005 BKN007 M01/M02 Q1010
  • 210450Z 34004KT 7000 OVC005 M01/M02 Q1010
  • 210420Z AUTO 01004KT 340V040 7000 // OVC005/// M01/M02 Q1010

TAF TAF EDNY
Valid from the 21 at 06:00 until the 22 at 06:00 UTC


210500Z 2106/2206 03006KT 8000 OVC006
TEMPO 2106/2109 3000 BR OVC004
TEMPO 2111/2116 BKN012
BECMG 2121/2124 3000 BR
No reported NOTAMs for that airfield.



MET'MAP, your aeronautical weather chart ! - Copyright ORBIFLY December 2007 - Disclaimer

ORBIFLY MET'MAP TEAM :

Programming & Development : Alexandra Zaïnal
Concept & Development : Baudouin d'Aumeries
Co-Development & Prog : Marc-Olivier Méhu
Technical & hardware support : Manuel Goepfert

Contact : metmap@orbifly.com




SOURCES & CREDITS :

   NOAA